Time;durP1;ratioP1;P1;durP2;ratioP2;P2;SDS_P1;SDS_P2;PMS_P1;PMS_P2;Temp;Humidity;BMP_temperature;BMP_pressure;BME280_temperature;BME280_humidity;BME280_pressure;Samples;Min_cycle;Max_cycle;Signal;HPM_P1;HPM_P2
2022/07/17 00:01:08;;;;;;;3.97;2.05;;;;;;;21.31;41.76;99926.13;5108642;28;20113;-69
2022/07/17 00:03:35;;;;;;;3.60;2.33;;;;;;;21.11;41.87;99892.03;5108584;28;20085;-69
2022/07/17 00:06:02;;;;;;;3.15;2.03;;;;;;;20.99;42.02;99871.56;5108663;28;20239;-70
2022/07/17 00:08:31;;;;;;;4.57;2.08;;;;;;;21.26;41.55;99914.91;5108573;28;20048;-69
2022/07/17 00:10:59;;;;;;;3.88;2.45;;;;;;;21.24;41.77;99918.72;5108506;28;20346;-69
2022/07/17 00:13:27;;;;;;;3.60;2.45;;;;;;;21.21;41.58;99925.25;5108363;28;20056;-69
2022/07/17 00:15:55;;;;;;;3.10;1.88;;;;;;;21.22;41.64;99926.97;5108178;28;20052;-69
2022/07/17 00:18:23;;;;;;;4.43;2.95;;;;;;;21.21;42.04;99924.41;5108541;28;20059;-70
2022/07/17 00:20:50;;;;;;;5.43;2.67;;;;;;;21.17;41.44;99942.69;5108063;28;20052;-68
2022/07/17 00:23:18;;;;;;;3.42;2.15;;;;;;;20.47;41.39;99822.34;5108030;28;20063;-69
2022/07/17 00:25:48;;;;;;;3.85;2.25;;;;;;;20.67;41.60;99842.97;5108323;28;20047;-70
2022/07/17 00:28:15;;;;;;;3.17;2.10;;;;;;;21.12;41.43;99926.09;5108292;28;20040;-69
2022/07/17 00:30:42;;;;;;;4.25;1.90;;;;;;;20.74;41.70;99860.28;5107725;28;20048;-69
2022/07/17 00:33:09;;;;;;;3.10;2.10;;;;;;;20.98;41.41;99905.72;5108208;28;20052;-69
2022/07/17 00:35:37;;;;;;;6.35;1.85;;;;;;;21.08;41.52;99920.13;5108065;28;20101;-69
2022/07/17 00:38:04;;;;;;;2.83;1.83;;;;;;;21.11;41.58;99925.22;5108311;28;20201;-69
2022/07/17 00:40:31;;;;;;;2.78;1.70;;;;;;;21.01;41.18;99908.16;5108256;28;20098;-69
2022/07/17 00:43:00;;;;;;;3.25;2.20;;;;;;;21.08;41.32;99928.22;5108046;28;20109;-70
2022/07/17 00:45:28;;;;;;;3.20;1.90;;;;;;;21.02;41.76;99935.94;5107562;28;20052;-67
2022/07/17 00:47:57;;;;;;;3.63;1.92;;;;;;;20.88;40.99;99906.69;5108024;28;20185;-68
2022/07/17 00:50:27;;;;;;;3.28;1.92;;;;;;;20.98;41.17;99937.22;5108051;28;20056;-70
2022/07/17 00:52:55;;;;;;;3.22;1.90;;;;;;;20.94;41.17;99936.63;5090115;28;20048;-70
2022/07/17 00:55:23;;;;;;;3.28;2.17;;;;;;;20.39;41.09;99841.03;5107830;28;20361;-70
2022/07/17 00:57:54;;;;;;;5.95;3.10;;;;;;;20.88;41.41;99930.94;5107874;28;20105;-70
2022/07/17 01:00:23;;;;;;;4.32;2.80;;;;;;;20.94;41.29;99938.47;5073226;28;20365;-70
2022/07/17 01:02:52;;;;;;;5.28;2.67;;;;;;;20.89;41.52;99941.59;5107086;28;20113;-70
2022/07/17 01:05:21;;;;;;;3.10;1.88;;;;;;;20.85;41.58;99950.06;5107353;28;20101;-70
2022/07/17 01:07:49;;;;;;;3.33;1.90;;;;;;;20.43;41.29;99896.31;5089837;28;20050;-69
2022/07/17 01:10:18;;;;;;;3.10;1.75;;;;;;;20.78;41.27;99947.91;5089767;28;20067;-70
2022/07/17 01:12:46;;;;;;;3.10;1.88;;;;;;;20.76;41.44;99949.91;5089612;28;20071;-70
2022/07/17 01:15:15;;;;;;;3.22;2.00;;;;;;;20.66;41.55;99926.59;5107376;28;20054;-70
2022/07/17 01:17:44;;;;;;;4.75;2.13;;;;;;;20.78;41.46;99947.06;5106999;28;20051;-70
2022/07/17 01:20:12;;;;;;;3.00;1.33;;;;;;;20.75;41.44;99945.50;5107563;28;20044;-69
2022/07/17 01:22:46;;;;;;;3.47;1.90;;;;;;;20.70;41.38;99963.91;5107391;28;20060;-71
2022/07/17 01:25:14;;;;;;;2.67;1.70;;;;;;;20.38;41.99;99893.16;5107142;28;20056;-70
2022/07/17 01:27:42;;;;;;;2.30;1.50;;;;;;;20.33;41.50;99909.72;5107153;28;20102;-70
2022/07/17 01:30:11;;;;;;;3.10;1.88;;;;;;;20.66;41.86;99954.38;5107029;28;20226;-70
2022/07/17 01:32:39;;;;;;;3.55;1.80;;;;;;;20.64;42.09;99952.81;5107262;28;20055;-71
2022/07/17 01:35:08;;;;;;;2.60;1.60;;;;;;;20.62;41.53;99947.56;5106978;28;20109;-70
2022/07/17 01:37:36;;;;;;;2.92;1.60;;;;;;;20.38;42.08;99923.63;5106988;28;20109;-69
2022/07/17 01:40:06;;;;;;;3.00;1.90;;;;;;;20.55;42.12;99946.38;5106806;28;20078;-69
2022/07/17 01:42:33;;;;;;;2.83;1.60;;;;;;;20.49;42.39;99955.84;5089096;28;20044;-70
2022/07/17 01:45:00;;;;;;;3.35;1.85;;;;;;;20.31;42.17;99929.69;5106633;28;20056;-70
2022/07/17 01:47:27;;;;;;;3.15;1.70;;;;;;;20.42;42.10;99954.69;5106613;28;20060;-69
2022/07/17 01:49:57;;;;;;;2.90;1.60;;;;;;;20.35;42.48;99961.59;5106666;28;20051;-70
2022/07/17 01:52:25;;;;;;;4.38;1.80;;;;;;;20.27;42.49;99960.53;5106485;28;20056;-70
2022/07/17 01:54:53;;;;;;;3.50;1.52;;;;;;;20.22;42.41;99960.94;5106655;28;20056;-70
2022/07/17 01:57:22;;;;;;;3.80;1.60;;;;;;;20.03;42.51;99917.72;5106341;28;20052;-70
2022/07/17 01:59:49;;;;;;;2.65;1.63;;;;;;;20.16;42.55;99958.72;5105911;28;20052;-70
2022/07/17 02:02:18;;;;;;;2.97;1.60;;;;;;;19.99;42.53;99932.41;5106187;28;20056;-69
2022/07/17 02:04:45;;;;;;;3.78;1.92;;;;;;;20.07;42.67;99962.19;5106262;28;20056;-70
2022/07/17 02:07:12;;;;;;;3.63;2.10;;;;;;;19.30;42.89;99830.63;5106439;28;20040;-71
2022/07/17 02:09:39;;;;;;;2.50;1.60;;;;;;;19.15;42.81;99805.88;5106349;28;20056;-71
2022/07/17 02:12:07;;;;;;;3.35;2.13;;;;;;;20.00;42.72;99956.50;5105520;28;20055;-70
2022/07/17 02:14:36;;;;;;;3.38;1.90;;;;;;;19.44;42.89;99876.03;5105977;28;20060;-69
2022/07/17 02:17:04;;;;;;;3.33;1.70;;;;;;;19.52;42.76;99900.44;5106186;28;20054;-70
2022/07/17 02:19:31;;;;;;;3.45;2.03;;;;;;;19.90;42.98;99960.94;5105859;28;20320;-69
2022/07/17 02:21:58;;;;;;;3.15;1.77;;;;;;;19.78;43.41;99967.31;5106183;28;20044;-70
2022/07/17 02:24:25;;;;;;;5.22;1.70;;;;;;;19.75;43.35;99962.19;5106383;28;20292;-70
2022/07/17 02:26:53;;;;;;;2.60;1.90;;;;;;;19.07;43.14;99858.53;5088024;28;20105;-69
2022/07/17 02:29:21;;;;;;;4.03;1.70;;;;;;;19.59;43.33;99940.25;5105938;28;20164;-69
2022/07/17 02:31:50;;;;;;;2.95;1.70;;;;;;;19.78;43.38;99980.75;5105452;28;20062;-71
2022/07/17 02:34:17;;;;;;;2.30;1.60;;;;;;;19.77;43.45;99971.00;5105524;28;20059;-71
2022/07/17 02:36:44;;;;;;;6.03;1.67;;;;;;;19.58;43.54;99942.09;5105969;28;20073;-71
2022/07/17 02:39:12;;;;;;;3.40;1.92;;;;;;;19.67;43.54;99970.06;5105773;28;20101;-72
2022/07/17 02:41:39;;;;;;;3.38;1.73;;;;;;;19.66;43.46;99971.03;5088110;28;20052;-72
2022/07/17 02:44:06;;;;;;;3.40;2.03;;;;;;;19.64;43.35;99975.69;5105773;28;20059;-72
2022/07/17 02:46:33;;;;;;;3.00;1.85;;;;;;;19.38;43.66;99934.78;5105684;28;20056;-73
2022/07/17 02:49:02;;;;;;;3.97;1.70;;;;;;;19.51;43.85;99971.31;5105362;28;20056;-72
2022/07/17 02:51:29;;;;;;;2.42;1.60;;;;;;;19.49;43.69;99967.91;5105923;28;20222;-72
2022/07/17 02:53:57;;;;;;;3.10;1.63;;;;;;;19.50;43.44;99964.22;5105463;28;20058;-72
2022/07/17 02:56:25;;;;;;;3.30;2.08;;;;;;;19.36;43.93;99969.84;5088295;28;20228;-72
2022/07/17 02:58:52;;;;;;;2.75;1.70;;;;;;;19.40;43.87;99965.97;5105599;28;20085;-72
2022/07/17 03:01:20;;;;;;;2.92;1.98;;;;;;;19.41;43.75;99972.19;5105606;28;20089;-72
2022/07/17 03:03:47;;;;;;;3.22;1.98;;;;;;;19.35;43.73;99970.84;5084853;28;20064;-71
2022/07/17 03:06:15;;;;;;;3.38;2.00;;;;;;;19.38;43.54;99975.97;5084791;28;20250;-72
2022/07/17 03:08:43;;;;;;;2.70;1.58;;;;;;;18.96;43.88;99906.91;5085042;28;20106;-71
2022/07/17 03:11:10;;;;;;;3.33;1.88;;;;;;;19.30;44.11;99972.19;5067678;28;20200;-72
2022/07/17 03:13:37;;;;;;;4.30;1.85;;;;;;;19.28;44.11;99968.78;5084722;28;20057;-72
2022/07/17 03:16:05;;;;;;;2.63;1.50;;;;;;;19.32;43.56;99981.84;5085231;28;20044;-71
2022/07/17 03:18:32;;;;;;;2.47;1.60;;;;;;;19.00;43.91;99948.66;5085549;28;20060;-71
2022/07/17 03:20:59;;;;;;;3.13;1.80;;;;;;;19.25;43.77;99986.00;5085066;28;20048;-71
2022/07/17 03:23:28;;;;;;;3.35;1.80;;;;;;;19.28;43.97;99984.91;5085347;28;20056;-72
2022/07/17 03:25:56;;;;;;;6.95;2.00;;;;;;;19.19;43.76;99990.03;5089389;28;20052;-71
2022/07/17 03:28:24;;;;;;;2.72;1.70;;;;;;;19.18;43.87;99987.47;5088755;28;20056;-71
2022/07/17 03:30:51;;;;;;;2.53;1.88;;;;;;;19.13;44.01;99987.00;5089179;28;20239;-71
2022/07/17 03:33:18;;;;;;;3.70;1.80;;;;;;;19.23;43.79;99994.19;5088852;28;20056;-71
2022/07/17 03:35:46;;;;;;;2.63;1.60;;;;;;;18.80;44.26;99932.31;5088946;28;20328;-71
2022/07/17 03:38:13;;;;;;;2.63;1.58;;;;;;;19.05;44.66;99987.63;5089018;28;20102;-71
2022/07/17 03:40:41;;;;;;;4.15;1.80;;;;;;;19.05;44.56;99990.31;5071438;28;20052;-71
2022/07/17 03:43:10;;;;;;;4.32;2.00;;;;;;;18.99;44.55;99996.16;5088885;28;20060;-71
2022/07/17 03:45:37;;;;;;;3.22;1.50;;;;;;;18.97;44.49;99987.38;5088973;28;20083;-72
2022/07/17 03:48:05;;;;;;;2.80;1.77;;;;;;;18.97;45.08;100000.81;5088884;28;20120;-72
2022/07/17 03:50:32;;;;;;;2.67;1.75;;;;;;;18.77;44.75;99969.31;5088609;28;20082;-71
2022/07/17 03:52:59;;;;;;;2.63;1.80;;;;;;;18.77;44.91;99974.69;5088775;28;20107;-71
2022/07/17 03:55:26;;;;;;;5.50;2.15;;;;;;;18.91;44.97;100004.84;5088655;28;20078;-72
2022/07/17 03:57:55;;;;;;;6.10;1.90;;;;;;;18.87;45.21;100010.56;5088685;28;20058;-72
2022/07/17 04:00:24;;;;;;;3.10;2.00;;;;;;;18.89;45.26;100001.41;5088664;28;20052;-72
2022/07/17 04:02:51;;;;;;;3.97;2.03;;;;;;;18.82;45.19;100002.03;5101002;28;20095;-71
2022/07/17 04:05:18;;;;;;;2.80;1.70;;;;;;;18.69;45.23;99969.91;5090949;28;20193;-71
2022/07/17 04:07:46;;;;;;;3.67;1.92;;;;;;;18.70;45.61;99973.47;5108551;28;20055;-72
2022/07/17 04:10:15;;;;;;;2.92;1.83;;;;;;;18.87;45.58;99999.81;5108867;28;20059;-71
2022/07/17 04:12:43;;;;;;;2.53;1.65;;;;;;;18.73;45.49;99968.69;5108682;28;20056;-71
2022/07/17 04:15:12;;;;;;;2.85;1.80;;;;;;;18.75;45.64;99980.16;5108561;28;20235;-72
2022/07/17 04:17:39;;;;;;;9.02;2.00;;;;;;;18.84;45.35;100006.28;5108170;28;20062;-72
2022/07/17 04:20:08;;;;;;;4.35;2.22;;;;;;;18.91;45.22;100007.53;5108457;28;20114;-72
2022/07/17 04:22:35;;;;;;;3.33;1.83;;;;;;;18.75;45.76;99988.22;5107804;28;20055;-72
2022/07/17 04:25:02;;;;;;;3.78;1.85;;;;;;;18.88;45.62;100013.13;5108339;28;20052;-72
2022/07/17 04:27:29;;;;;;;3.05;1.92;;;;;;;18.93;45.62;100007.41;5108180;28;20067;-72
2022/07/17 04:29:56;;;;;;;2.72;1.77;;;;;;;18.91;45.47;100020.09;5108454;28;20040;-72
2022/07/17 04:32:25;;;;;;;2.88;1.88;;;;;;;18.96;45.47;100014.34;5107955;28;20067;-71
2022/07/17 04:34:52;;;;;;;3.85;1.80;;;;;;;18.94;45.99;100013.63;5107837;28;20311;-72
2022/07/17 04:37:20;;;;;;;2.80;1.88;;;;;;;18.88;45.66;100006.91;5107943;28;20312;-72
2022/07/17 04:39:47;;;;;;;4.10;1.98;;;;;;;18.80;46.09;100004.81;5108024;28;20088;-72
2022/07/17 04:42:14;;;;;;;4.70;2.17;;;;;;;18.91;45.32;100017.41;5107788;28;20074;-72
2022/07/17 04:44:41;;;;;;;5.13;2.08;;;;;;;18.99;45.95;100019.47;5107971;28;20193;-72
2022/07/17 04:47:10;;;;;;;3.47;1.83;;;;;;;18.98;45.98;100024.00;5107747;28;20056;-71
2022/07/17 04:49:38;;;;;;;3.10;2.10;;;;;;;18.86;46.20;99998.97;5107841;28;20219;-72
2022/07/17 04:52:05;;;;;;;4.15;1.92;;;;;;;19.00;46.50;100013.13;5108099;28;20056;-72
2022/07/17 04:54:33;;;;;;;3.90;2.00;;;;;;;19.01;46.62;100022.91;5107803;28;20110;-72
2022/07/17 04:57:00;;;;;;;2.60;1.67;;;;;;;19.04;46.12;100015.44;5107883;28;20056;-72
2022/07/17 04:59:27;;;;;;;3.13;2.08;;;;;;;19.08;45.91;100018.75;5107674;28;20055;-72
2022/07/17 05:01:55;;;;;;;2.88;1.90;;;;;;;19.01;46.14;100006.78;5089243;28;20360;-72
2022/07/17 05:04:22;;;;;;;6.38;2.20;;;;;;;19.08;45.99;100022.28;5107559;28;20082;-71
2022/07/17 05:06:51;;;;;;;2.67;1.73;;;;;;;19.14;46.25;100031.69;5089952;28;20040;-71
2022/07/17 05:09:19;;;;;;;3.33;2.08;;;;;;;18.67;45.56;99930.75;5107531;28;20361;-72
2022/07/17 05:11:46;;;;;;;2.60;1.80;;;;;;;19.19;45.85;100024.97;5107403;28;20269;-72
2022/07/17 05:14:13;;;;;;;3.35;1.70;;;;;;;19.20;45.97;100029.38;5107505;28;20040;-72
2022/07/17 05:16:41;;;;;;;2.70;1.80;;;;;;;18.94;45.97;99984.06;5106506;28;20121;-71
2022/07/17 05:19:09;;;;;;;3.70;1.98;;;;;;;19.26;45.95;100022.66;5089884;28;20120;-71
2022/07/17 05:21:36;;;;;;;2.90;1.98;;;;;;;18.99;45.95;99982.72;5107263;28;20048;-71
2022/07/17 05:24:05;;;;;;;5.82;1.95;;;;;;;19.32;45.83;100024.84;5107229;28;20056;-71
2022/07/17 05:26:33;;;;;;;2.65;1.80;;;;;;;19.32;45.76;100034.72;5107691;28;20056;-72
2022/07/17 05:29:00;;;;;;;3.35;1.80;;;;;;;19.20;45.65;100002.50;5106619;28;20136;-71
2022/07/17 05:31:27;;;;;;;3.50;1.77;;;;;;;19.22;45.72;99997.84;5107064;28;20043;-71
2022/07/17 05:33:54;;;;;;;3.10;2.03;;;;;;;19.39;45.52;100027.91;5107042;28;20044;-71
2022/07/17 05:36:21;;;;;;;2.95;1.67;;;;;;;19.14;45.87;99983.34;5106981;28;20036;-71
2022/07/17 05:38:48;;;;;;;4.22;2.40;;;;;;;19.44;45.66;100028.41;5107243;28;20295;-71
2022/07/17 05:41:17;;;;;;;3.00;1.63;;;;;;;19.48;45.71;100025.34;5107172;28;20062;-71
2022/07/17 05:43:45;;;;;;;4.18;1.92;;;;;;;19.52;45.10;100024.09;5106604;28;20063;-72
2022/07/17 05:46:12;;;;;;;3.13;2.00;;;;;;;19.48;44.40;100028.03;5087681;28;20081;-71
2022/07/17 05:48:41;;;;;;;2.75;1.65;;;;;;;19.54;44.86;100022.16;5106454;28;20356;-71
2022/07/17 05:51:08;;;;;;;3.03;1.95;;;;;;;19.58;44.84;100032.66;5089215;28;20036;-71
2022/07/17 05:53:35;;;;;;;3.63;1.92;;;;;;;19.44;44.42;99999.69;5106974;28;20044;-72
2022/07/17 05:56:03;;;;;;;3.40;1.90;;;;;;;19.63;44.18;100028.59;5106575;28;20112;-72
2022/07/17 05:58:31;;;;;;;4.13;1.90;;;;;;;19.65;43.77;100029.34;5106509;28;20073;-72
2022/07/17 06:00:59;;;;;;;3.08;1.83;;;;;;;19.68;43.81;100031.78;5088734;28;20094;-72
2022/07/17 06:03:26;;;;;;;3.10;1.60;;;;;;;19.66;43.67;100017.59;5088358;28;20365;-72
2022/07/17 06:05:54;;;;;;;3.17;1.40;;;;;;;19.75;43.68;100035.66;5089008;28;20071;-72
2022/07/17 06:08:21;;;;;;;2.85;1.60;;;;;;;19.77;44.29;100032.84;5106184;28;20258;-72
2022/07/17 06:10:49;;;;;;;2.60;1.45;;;;;;;19.06;43.58;99922.16;5106240;28;20106;-72
2022/07/17 06:13:16;;;;;;;3.25;1.80;;;;;;;19.60;43.30;100007.34;5106191;28;20227;-71
2022/07/17 06:15:45;;;;;;;3.10;1.63;;;;;;;19.65;42.74;100015.88;5106319;28;20113;-70
2022/07/17 06:18:13;;;;;;;3.22;1.92;;;;;;;19.80;42.32;100036.16;5088792;28;20052;-70
2022/07/17 06:20:40;;;;;;;4.40;1.60;;;;;;;19.66;42.87;100022.97;5106250;28;20215;-71
2022/07/17 06:23:07;;;;;;;2.85;1.65;;;;;;;19.83;42.63;100040.44;5105894;28;20067;-70
2022/07/17 06:25:34;;;;;;;5.50;3.05;;;;;;;19.85;41.55;100050.09;5106258;28;20235;-71
2022/07/17 06:28:02;;;;;;;5.25;3.92;;;;;;;19.86;41.79;100049.09;5106066;28;20040;-72
2022/07/17 06:30:29;;;;;;;6.97;4.57;;;;;;;19.91;41.98;100040.66;5105924;28;20209;-71
2022/07/17 06:32:58;;;;;;;3.50;2.40;;;;;;;19.87;40.84;100049.97;5087919;28;20064;-71
2022/07/17 06:35:25;;;;;;;4.28;2.15;;;;;;;19.87;41.78;100041.91;5106050;28;20346;-71
2022/07/17 06:37:52;;;;;;;4.10;2.72;;;;;;;19.92;41.91;100054.97;5105649;28;20052;-71
2022/07/17 06:40:20;;;;;;;4.45;2.42;;;;;;;19.85;42.38;100036.63;5105429;28;20059;-71
2022/07/17 06:42:47;;;;;;;2.85;1.85;;;;;;;19.94;41.27;100048.47;5105913;28;20101;-72
2022/07/17 06:45:14;;;;;;;4.28;1.85;;;;;;;19.50;41.40;99972.28;5105327;28;20105;-72
2022/07/17 06:47:42;;;;;;;7.38;2.17;;;;;;;19.94;41.13;100053.00;5105697;28;20052;-72
2022/07/17 06:50:10;;;;;;;3.35;2.08;;;;;;;19.84;40.80;100032.25;5105510;28;20056;-72
2022/07/17 06:52:38;;;;;;;2.95;1.98;;;;;;;19.99;40.39;100051.63;5106066;28;20081;-72
2022/07/17 06:55:06;;;;;;;3.92;2.03;;;;;;;20.04;40.45;100048.56;5087991;28;20056;-72
2022/07/17 06:57:33;;;;;;;2.65;1.70;;;;;;;19.85;40.66;100003.50;5105252;28;20048;-72
2022/07/17 07:00:00;;;;;;;5.35;2.10;;;;;;;20.13;39.00;100045.97;5105702;28;20052;-72
2022/07/17 07:02:27;;;;;;;4.25;2.47;;;;;;;20.07;39.27;100038.41;5105386;28;20315;-72
2022/07/17 07:04:55;;;;;;;4.55;2.50;;;;;;;20.16;38.97;100052.91;5106013;28;20052;-72
2022/07/17 07:07:24;;;;;;;5.50;2.72;;;;;;;20.31;39.28;100048.97;5105327;28;20056;-72
2022/07/17 07:09:51;;;;;;;4.18;2.90;;;;;;;20.55;39.18;100053.25;5105132;28;20062;-71
2022/07/17 07:12:18;;;;;;;4.10;2.28;;;;;;;20.62;38.44;100039.13;5105055;28;20120;-72
2022/07/17 07:14:46;;;;;;;3.38;2.33;;;;;;;21.03;38.07;100050.88;5105415;28;20098;-72
2022/07/17 07:17:13;;;;;;;4.53;2.38;;;;;;;21.29;37.79;100044.03;5105035;28;20052;-71
2022/07/17 07:19:40;;;;;;;4.65;2.30;;;;;;;21.46;36.47;100029.91;5105882;28;20188;-72
2022/07/17 07:22:08;;;;;;;5.20;2.10;;;;;;;21.79;36.06;100044.03;5104869;28;20064;-71
2022/07/17 07:24:37;;;;;;;5.68;2.22;;;;;;;21.35;36.12;99924.84;5105327;28;20090;-71
2022/07/17 07:27:04;;;;;;;4.35;2.78;;;;;;;21.59;35.74;99940.63;5105076;28;20106;-71
2022/07/17 07:29:32;;;;;;;4.38;2.72;;;;;;;22.22;34.11;100008.56;5105125;28;20051;-71
2022/07/17 07:31:59;;;;;;;4.45;3.10;;;;;;;22.26;34.92;100004.59;5105173;28;20046;-71
2022/07/17 07:34:26;;;;;;;4.97;3.17;;;;;;;22.55;35.35;100020.81;5105155;28;20128;-71
2022/07/17 07:36:54;;;;;;;8.27;6.10;;;;;;;22.70;34.72;100019.34;5105106;28;20052;-71
2022/07/17 07:39:21;;;;;;;7.22;5.00;;;;;;;22.20;34.72;99939.50;5104815;28;20109;-72
2022/07/17 07:41:49;;;;;;;6.85;4.53;;;;;;;22.55;34.01;99993.81;5105004;28;20052;-71
2022/07/17 07:44:17;;;;;;;7.90;4.95;;;;;;;22.19;34.46;99883.81;5105312;28;20052;-72
2022/07/17 07:46:45;;;;;;;5.78;3.95;;;;;;;23.40;33.12;100048.72;5104545;28;20063;-72
2022/07/17 07:49:12;;;;;;;8.15;3.47;;;;;;;23.26;33.53;100048.22;5105344;28;20044;-71
2022/07/17 07:51:39;;;;;;;4.25;2.80;;;;;;;22.86;33.97;100018.75;5087556;28;20056;-71
2022/07/17 07:54:07;;;;;;;4.75;3.72;;;;;;;23.04;33.79;100046.69;5104738;28;20223;-71
2022/07/17 07:56:35;;;;;;;4.15;2.83;;;;;;;22.52;33.55;99947.28;5105010;28;20108;-71
2022/07/17 07:59:04;;;;;;;4.07;2.40;;;;;;;23.17;32.61;100019.34;5104516;28;20048;-71
2022/07/17 08:01:31;;;;;;;6.55;3.28;;;;;;;23.52;32.12;100039.41;5104413;28;20056;-71
2022/07/17 08:03:59;;;;;;;7.03;3.47;;;;;;;23.66;32.02;100036.19;5104312;28;20081;-71
2022/07/17 08:06:26;;;;;;;4.85;3.60;;;;;;;23.66;32.42;100026.22;5105349;28;20124;-71
2022/07/17 08:08:53;;;;;;;6.40;3.47;;;;;;;24.07;32.54;100048.31;5104506;28;20123;-71
2022/07/17 08:11:21;;;;;;;6.55;3.22;;;;;;;24.12;30.86;100028.91;5107869;28;20062;-71
2022/07/17 08:13:48;;;;;;;4.93;2.63;;;;;;;24.39;31.93;100046.91;5108320;28;20235;-71
2022/07/17 08:16:17;;;;;;;8.30;2.30;;;;;;;24.42;30.88;100050.16;5108356;28;20056;-71
2022/07/17 08:18:44;;;;;;;3.60;2.00;;;;;;;24.15;31.40;100006.94;5108476;28;20054;-71
2022/07/17 08:21:12;;;;;;;5.53;4.25;;;;;;;24.53;30.95;100049.91;5108167;28;20056;-71
2022/07/17 08:23:39;;;;;;;4.97;3.35;;;;;;;24.67;31.70;100053.09;5108220;28;20055;-71
2022/07/17 08:26:06;;;;;;;4.03;2.63;;;;;;;24.90;30.86;100052.41;5108151;28;20059;-71
2022/07/17 08:28:34;;;;;;;3.17;2.10;;;;;;;25.10;29.77;100057.66;5107509;28;20251;-71
2022/07/17 08:31:01;;;;;;;4.57;2.47;;;;;;;25.01;30.75;100055.91;5108335;28;20082;-71
2022/07/17 08:33:30;;;;;;;4.72;2.67;;;;;;;24.73;30.94;99958.47;5108222;28;20059;-71
2022/07/17 08:35:57;;;;;;;3.00;1.80;;;;;;;25.28;29.34;100034.88;5108068;28;20227;-71
2022/07/17 08:38:25;;;;;;;5.88;2.75;;;;;;;25.62;30.07;100055.72;5107882;28;20062;-71
2022/07/17 08:40:54;;;;;;;4.72;2.50;;;;;;;25.43;30.41;100029.72;5108057;28;20052;-71
2022/07/17 08:43:22;;;;;;;7.78;4.10;;;;;;;25.51;30.14;100054.16;5108127;28;20056;-70
2022/07/17 08:45:50;;;;;;;6.72;3.90;;;;;;;25.48;28.20;100056.34;5107463;28;20250;-71
2022/07/17 08:48:19;;;;;;;5.88;3.33;;;;;;;25.58;29.76;100051.63;5107814;28;20056;-71
2022/07/17 08:50:48;;;;;;;3.72;2.58;;;;;;;25.63;29.19;100046.56;5107358;28;20063;-72
2022/07/17 08:53:16;;;;;;;4.90;2.15;;;;;;;25.77;29.28;100048.66;5107389;28;20056;-72
2022/07/17 08:55:43;;;;;;;3.53;1.77;;;;;;;25.74;29.31;100016.41;5107605;28;20060;-71
2022/07/17 08:58:16;;;;;;;2.72;1.90;;;;;;;25.70;28.48;99984.31;5107202;28;20052;-71
2022/07/17 09:00:43;;;;;;;3.03;1.95;;;;;;;26.13;28.56;100027.53;5107403;28;20105;-71
2022/07/17 09:03:11;;;;;;;3.90;2.67;;;;;;;26.33;29.27;100029.91;5089291;28;20063;-72
2022/07/17 09:05:43;;;;;;;4.85;2.38;;;;;;;26.10;28.70;99981.69;5107937;28;20048;-71
2022/07/17 09:08:19;;;;;;;4.90;2.00;;;;;;;25.84;28.07;99927.50;5107481;28;20040;-71
2022/07/17 09:10:49;;;;;;;5.82;2.90;;;;;;;26.65;29.19;100035.38;5107234;28;20085;-71
2022/07/17 09:13:19;;;;;;;3.13;1.80;;;;;;;26.91;28.03;100035.16;5106162;28;20056;-72
2022/07/17 09:15:47;;;;;;;4.88;2.08;;;;;;;26.64;28.52;100028.25;5107101;28;20044;-71
2022/07/17 09:18:14;;;;;;;19.88;2.92;;;;;;;26.73;28.22;100032.66;5107535;28;20119;-72
2022/07/17 09:20:46;;;;;;;3.58;2.05;;;;;;;26.84;27.22;100029.56;5107086;28;20052;-71
2022/07/17 09:23:15;;;;;;;5.60;3.42;;;;;;;26.82;28.19;100030.75;5107232;28;20056;-72
2022/07/17 09:25:44;;;;;;;5.70;3.83;;;;;;;26.85;27.98;100014.09;5107256;28;20075;-72
2022/07/17 09:28:13;;;;;;;3.97;2.55;;;;;;;27.05;27.50;100028.16;5089037;28;20109;-72
2022/07/17 09:30:43;;;;;;;3.33;2.00;;;;;;;26.97;27.69;100023.59;5106912;28;20216;-72
2022/07/17 09:33:14;;;;;;;4.45;2.67;;;;;;;25.82;27.50;99856.22;5106997;28;20086;-72
2022/07/17 09:35:47;;;;;;;7.75;3.60;;;;;;;26.80;26.64;100027.38;5107047;28;20150;-72
2022/07/17 09:38:26;;;;;;;4.88;3.42;;;;;;;27.14;27.29;100025.25;5106611;28;20052;-72
2022/07/17 09:41:16;;;;;;;3.47;1.70;;;;;;;26.70;27.05;99909.78;5106512;28;20056;-72
2022/07/17 09:43:50;;;;;;;4.30;1.67;;;;;;;27.49;26.41;100017.66;5106975;28;20197;-72
2022/07/17 09:46:20;;;;;;;3.85;1.83;;;;;;;27.39;26.43;100020.59;5106870;28;20082;-72
2022/07/17 09:48:50;;;;;;;4.25;2.08;;;;;;;27.24;26.28;100016.06;5106371;28;20059;-72
2022/07/17 09:51:22;;;;;;;4.43;2.10;;;;;;;27.37;27.07;100014.47;5089223;28;20074;-71
2022/07/17 09:53:52;;;;;;;2.85;1.90;;;;;;;27.12;25.71;99942.94;5106880;28;20048;-72
2022/07/17 09:56:22;;;;;;;4.55;2.40;;;;;;;27.48;26.25;99999.63;5106720;28;20052;-71
2022/07/17 09:58:51;;;;;;;3.10;1.95;;;;;;;27.52;26.89;100003.69;5106718;28;20059;-73
2022/07/17 10:01:19;;;;;;;3.38;1.70;;;;;;;27.56;26.81;99980.50;5106503;28;20105;-73
2022/07/17 10:03:52;;;;;;;3.50;2.25;;;;;;;27.88;25.91;100000.47;5106254;28;20320;-72
2022/07/17 10:06:21;;;;;;;3.27;2.10;;;;;;;27.76;27.20;99992.69;5088544;28;20055;-73
2022/07/17 10:08:51;;;;;;;3.13;1.70;;;;;;;27.89;25.89;100002.16;5106034;28;20472;-74
2022/07/17 10:11:21;;;;;;;3.25;1.88;;;;;;;27.93;26.52;99998.91;5105891;28;20056;-72
2022/07/17 10:13:51;;;;;;;3.30;1.98;;;;;;;27.80;26.18;99953.16;5106390;28;20056;-72
2022/07/17 10:16:25;;;;;;;3.53;2.13;;;;;;;27.82;25.55;99955.69;5106244;28;20048;-73
2022/07/17 10:18:54;;;;;;;3.22;1.75;;;;;;;27.91;25.12;100005.56;5106506;28;20043;-73
2022/07/17 10:21:27;;;;;;;7.07;1.73;;;;;;;27.42;25.78;100003.03;5105648;28;20060;-73
2022/07/17 10:24:10;;;;;;;4.13;2.25;;;;;;;27.14;25.74;99930.00;5106233;28;20052;-73
2022/07/17 10:26:43;;;;;;;4.18;1.90;;;;;;;27.73;25.95;99992.19;5106362;28;20086;-73
2022/07/17 10:29:31;;;;;;;5.38;1.80;;;;;;;27.25;26.00;99983.22;5105977;28;20043;-73
2022/07/17 10:31:59;;;;;;;3.25;1.55;;;;;;;27.65;26.79;99978.63;5106084;28;20059;-73
2022/07/17 10:34:40;;;;;;;3.55;2.05;;;;;;;27.73;25.61;99952.19;5106148;28;20046;-73
2022/07/17 10:37:24;;;;;;;3.85;1.50;;;;;;;27.84;25.66;99950.97;5106053;28;20114;-73
2022/07/17 10:40:04;;;;;;;4.05;1.55;;;;;;;28.10;25.02;100000.47;5087993;28;20085;-72
2022/07/17 10:42:52;;;;;;;3.05;1.90;;;;;;;28.06;25.62;99996.41;5087240;28;20056;-72
2022/07/17 10:45:24;;;;;;;3.17;1.40;;;;;;;26.43;25.36;99789.59;5105522;28;20065;-72
2022/07/17 10:47:54;;;;;;;2.47;1.45;;;;;;;27.44;27.01;99941.97;5088009;28;20063;-73
2022/07/17 10:50:26;;;;;;;3.00;2.25;;;;;;;28.00;26.11;99988.13;5106268;28;20096;-72
2022/07/17 10:53:10;;;;;;;3.25;1.80;;;;;;;28.18;25.32;99976.91;5105715;28;20052;-72
2022/07/17 10:55:41;;;;;;;3.38;1.70;;;;;;;28.35;25.52;99983.91;5088581;28;20047;-71
2022/07/17 10:58:21;;;;;;;6.03;2.58;;;;;;;28.27;25.03;99975.81;5105754;28;20062;-72
2022/07/17 11:00:59;;;;;;;3.85;2.22;;;;;;;27.87;25.73;99974.25;5105715;28;20330;-71
2022/07/17 11:03:26;;;;;;;5.18;3.08;;;;;;;28.18;26.25;99969.59;5104893;28;20118;-72
2022/07/17 11:05:54;;;;;;;4.40;2.97;;;;;;;28.18;25.94;99944.22;5105123;28;20142;-71
2022/07/17 11:08:21;;;;;;;3.65;2.40;;;;;;;28.13;25.58;99966.56;5105083;28;20064;-72
2022/07/17 11:10:52;;;;;;;4.68;2.05;;;;;;;28.32;25.52;99960.59;5105572;28;20051;-72
2022/07/17 11:13:19;;;;;;;3.47;1.65;;;;;;;28.36;25.93;99961.94;5105637;28;20093;-73
2022/07/17 11:15:49;;;;;;;3.90;1.88;;;;;;;28.46;25.04;99960.84;5105207;28;20365;-73
2022/07/17 11:18:19;;;;;;;3.78;1.90;;;;;;;28.50;26.25;99959.44;5087822;28;20036;-73
2022/07/17 11:20:51;;;;;;;3.70;1.80;;;;;;;28.65;24.96;99963.03;5105720;28;20052;-73
2022/07/17 11:23:18;;;;;;;5.00;2.28;;;;;;;28.15;23.95;99876.47;5105484;28;20052;-74
2022/07/17 11:25:57;;;;;;;3.65;2.00;;;;;;;28.54;24.20;99960.78;5105545;28;20107;-74
2022/07/17 11:28:37;;;;;;;8.80;2.13;;;;;;;28.60;24.16;99957.28;5105520;28;20052;-73
2022/07/17 11:31:18;;;;;;;9.73;2.38;;;;;;;28.67;24.35;99961.81;5087907;28;20044;-74
2022/07/17 11:34:05;;;;;;;3.92;2.00;;;;;;;28.28;23.37;99940.19;5105466;28;20040;-74
2022/07/17 11:36:35;;;;;;;16.48;3.58;;;;;;;27.90;24.61;99862.22;5105214;28;20247;-74